Lydick, Indiana
Current Conditions -  °F | °C
As of 4:54 AM on Thursday 29 Jan 2015 (Local Time) from KSBN Reporting Station
Overcast Overcast  
Wind Chill: 28°   Ceiling: 9000
Heat Index: 35°   Visibility: 10mi
Dew Point: 24°   Wind: 9mph
Humidity: 64%   Direction: 160°SSE
Pressure: 29.77"   Gusts: NA
Location:  41.7216°N, 86.3352°W
Report Text: KSBN 290954Z 16008KT 10SM BKN090 OVC110 02/M04 A2977 RMK AO2 SLP088 T00171044
Loading
Personal Weather Stations






























Interactive Weather Map New forecast layout! Learn more

10-Day Weather Forecast

Advertisements
Track Severe Weather on mobile